sensor_id;sensor_type;location;lat;lon;timestamp;temperature;humidity
7411;DHT22;3747;48.628;9.058;2022-09-02T00:02:07;10.40;99.90
7411;DHT22;3747;48.628;9.058;2022-09-02T00:04:34;10.30;99.90
7411;DHT22;3747;48.628;9.058;2022-09-02T00:07:02;10.10;99.90
7411;DHT22;3747;48.628;9.058;2022-09-02T00:09:28;10.10;99.90
7411;DHT22;3747;48.628;9.058;2022-09-02T00:11:56;9.90;99.90
7411;DHT22;3747;48.628;9.058;2022-09-02T00:14:24;9.90;99.90
7411;DHT22;3747;48.628;9.058;2022-09-02T00:16:51;9.80;99.90
7411;DHT22;3747;48.628;9.058;2022-09-02T00:19:20;9.70;99.90
7411;DHT22;3747;48.628;9.058;2022-09-02T00:21:47;9.60;99.90
7411;DHT22;3747;48.628;9.058;2022-09-02T00:24:15;9.60;99.90
7411;DHT22;3747;48.628;9.058;2022-09-02T00:26:42;9.60;99.90
7411;DHT22;3747;48.628;9.058;2022-09-02T00:29:09;9.60;99.90
7411;DHT22;3747;48.628;9.058;2022-09-02T00:31:37;9.60;99.90
7411;DHT22;3747;48.628;9.058;2022-09-02T00:34:04;9.60;99.90
7411;DHT22;3747;48.628;9.058;2022-09-02T00:36:31;9.60;99.90
7411;DHT22;3747;48.628;9.058;2022-09-02T00:38:58;9.60;99.90
7411;DHT22;3747;48.628;9.058;2022-09-02T00:41:27;9.70;99.90
7411;DHT22;3747;48.628;9.058;2022-09-02T00:43:57;9.50;99.90
7411;DHT22;3747;48.628;9.058;2022-09-02T00:46:26;9.50;99.90
7411;DHT22;3747;48.628;9.058;2022-09-02T00:48:58;9.40;99.90
7411;DHT22;3747;48.628;9.058;2022-09-02T00:51:31;9.50;99.90
7411;DHT22;3747;48.628;9.058;2022-09-02T00:53:59;9.50;99.90
7411;DHT22;3747;48.628;9.058;2022-09-02T00:56:30;9.50;99.90
7411;DHT22;3747;48.628;9.058;2022-09-02T00:58:57;9.40;99.90
7411;DHT22;3747;48.628;9.058;2022-09-02T01:01:25;9.60;99.90
7411;DHT22;3747;48.628;9.058;2022-09-02T01:03:52;9.60;99.90
7411;DHT22;3747;48.628;9.058;2022-09-02T01:06:21;9.60;99.90
7411;DHT22;3747;48.628;9.058;2022-09-02T01:08:56;9.70;99.90
7411;DHT22;3747;48.628;9.058;2022-09-02T01:11:29;9.70;99.90
7411;DHT22;3747;48.628;9.058;2022-09-02T01:14:03;9.70;99.90
7411;DHT22;3747;48.628;9.058;2022-09-02T01:16:33;9.60;99.90
7411;DHT22;3747;48.628;9.058;2022-09-02T01:19:07;9.50;99.90
7411;DHT22;3747;48.628;9.058;2022-09-02T01:21:36;9.30;99.90
7411;DHT22;3747;48.628;9.058;2022-09-02T01:24:04;9.20;99.90
7411;DHT22;3747;48.628;9.058;2022-09-02T01:26:31;9.10;99.90
7411;DHT22;3747;48.628;9.058;2022-09-02T01:28:58;9.10;99.90
7411;DHT22;3747;48.628;9.058;2022-09-02T01:31:25;9.00;99.90
7411;DHT22;3747;48.628;9.058;2022-09-02T01:33:51;8.90;99.90
7411;DHT22;3747;48.628;9.058;2022-09-02T01:36:19;8.90;99.90
7411;DHT22;3747;48.628;9.058;2022-09-02T01:38:46;8.90;99.90
7411;DHT22;3747;48.628;9.058;2022-09-02T01:41:14;8.90;99.90
7411;DHT22;3747;48.628;9.058;2022-09-02T01:43:41;8.80;99.90
7411;DHT22;3747;48.628;9.058;2022-09-02T01:46:08;8.80;99.90
7411;DHT22;3747;48.628;9.058;2022-09-02T01:48:34;8.80;99.90
7411;DHT22;3747;48.628;9.058;2022-09-02T01:51:02;8.80;99.90
7411;DHT22;3747;48.628;9.058;2022-09-02T01:53:30;8.70;99.90
7411;DHT22;3747;48.628;9.058;2022-09-02T01:55:58;8.60;99.90
7411;DHT22;3747;48.628;9.058;2022-09-02T01:58:26;8.60;99.90
7411;DHT22;3747;48.628;9.058;2022-09-02T02:00:52;8.60;99.90
7411;DHT22;3747;48.628;9.058;2022-09-02T02:03:19;8.70;99.90
7411;DHT22;3747;48.628;9.058;2022-09-02T02:05:46;8.80;99.90
7411;DHT22;3747;48.628;9.058;2022-09-02T02:08:13;8.80;99.90
7411;DHT22;3747;48.628;9.058;2022-09-02T02:10:40;8.80;99.90
7411;DHT22;3747;48.628;9.058;2022-09-02T02:13:08;8.90;99.90
7411;DHT22;3747;48.628;9.058;2022-09-02T02:15:38;9.00;99.90
7411;DHT22;3747;48.628;9.058;2022-09-02T02:18:05;9.00;99.90
7411;DHT22;3747;48.628;9.058;2022-09-02T02:20:33;8.90;99.90
7411;DHT22;3747;48.628;9.058;2022-09-02T02:22:59;9.00;99.90
7411;DHT22;3747;48.628;9.058;2022-09-02T02:25:26;8.90;99.90
7411;DHT22;3747;48.628;9.058;2022-09-02T02:27:53;8.80;99.90
7411;DHT22;3747;48.628;9.058;2022-09-02T02:30:20;8.60;99.90
7411;DHT22;3747;48.628;9.058;2022-09-02T02:32:48;8.70;99.90
7411;DHT22;3747;48.628;9.058;2022-09-02T02:35:16;8.60;99.90
7411;DHT22;3747;48.628;9.058;2022-09-02T02:37:44;8.70;99.90
7411;DHT22;3747;48.628;9.058;2022-09-02T02:40:14;8.70;99.90
7411;DHT22;3747;48.628;9.058;2022-09-02T02:42:41;8.60;99.90
7411;DHT22;3747;48.628;9.058;2022-09-02T02:45:08;8.50;99.90
7411;DHT22;3747;48.628;9.058;2022-09-02T02:47:38;8.50;99.90
7411;DHT22;3747;48.628;9.058;2022-09-02T02:50:09;8.60;99.90
7411;DHT22;3747;48.628;9.058;2022-09-02T02:52:37;8.50;99.90
7411;DHT22;3747;48.628;9.058;2022-09-02T02:55:05;8.40;99.90
7411;DHT22;3747;48.628;9.058;2022-09-02T02:57:32;8.30;99.90
7411;DHT22;3747;48.628;9.058;2022-09-02T03:00:03;8.20;99.90
7411;DHT22;3747;48.628;9.058;2022-09-02T03:02:30;8.30;99.90
7411;DHT22;3747;48.628;9.058;2022-09-02T03:04:58;8.20;99.90
7411;DHT22;3747;48.628;9.058;2022-09-02T03:07:27;8.10;99.90
7411;DHT22;3747;48.628;9.058;2022-09-02T03:09:54;8.10;99.90
7411;DHT22;3747;48.628;9.058;2022-09-02T03:12:20;8.10;99.90
7411;DHT22;3747;48.628;9.058;2022-09-02T03:14:48;8.00;99.90
7411;DHT22;3747;48.628;9.058;2022-09-02T03:17:14;8.00;99.90
7411;DHT22;3747;48.628;9.058;2022-09-02T03:19:41;7.90;99.90
7411;DHT22;3747;48.628;9.058;2022-09-02T03:22:08;7.90;99.90
7411;DHT22;3747;48.628;9.058;2022-09-02T03:24:37;7.80;99.90
7411;DHT22;3747;48.628;9.058;2022-09-02T03:27:04;7.80;99.90
7411;DHT22;3747;48.628;9.058;2022-09-02T03:29:30;7.90;99.90
7411;DHT22;3747;48.628;9.058;2022-09-02T03:31:57;7.90;99.90
7411;DHT22;3747;48.628;9.058;2022-09-02T03:34:25;8.00;99.90
7411;DHT22;3747;48.628;9.058;2022-09-02T03:36:52;8.00;99.90
7411;DHT22;3747;48.628;9.058;2022-09-02T03:39:18;8.00;99.90
7411;DHT22;3747;48.628;9.058;2022-09-02T03:41:47;8.00;99.90
7411;DHT22;3747;48.628;9.058;2022-09-02T03:44:15;8.00;99.90
7411;DHT22;3747;48.628;9.058;2022-09-02T03:46:42;8.00;99.90
7411;DHT22;3747;48.628;9.058;2022-09-02T03:49:08;8.10;99.90
7411;DHT22;3747;48.628;9.058;2022-09-02T03:51:39;8.20;99.90
7411;DHT22;3747;48.628;9.058;2022-09-02T03:54:06;8.20;99.90
7411;DHT22;3747;48.628;9.058;2022-09-02T03:56:34;8.20;99.90
7411;DHT22;3747;48.628;9.058;2022-09-02T03:59:03;8.10;99.90
7411;DHT22;3747;48.628;9.058;2022-09-02T04:01:29;8.10;99.90
7411;DHT22;3747;48.628;9.058;2022-09-02T04:03:56;8.00;99.90
7411;DHT22;3747;48.628;9.058;2022-09-02T04:06:23;8.10;99.90
7411;DHT22;3747;48.628;9.058;2022-09-02T04:08:50;8.10;99.90
7411;DHT22;3747;48.628;9.058;2022-09-02T04:11:19;8.20;99.90
7411;DHT22;3747;48.628;9.058;2022-09-02T04:13:47;8.10;99.90
7411;DHT22;3747;48.628;9.058;2022-09-02T04:16:17;8.00;99.90
7411;DHT22;3747;48.628;9.058;2022-09-02T04:18:43;8.00;99.90
7411;DHT22;3747;48.628;9.058;2022-09-02T04:21:10;8.00;99.90
7411;DHT22;3747;48.628;9.058;2022-09-02T04:23:37;8.10;99.90
7411;DHT22;3747;48.628;9.058;2022-09-02T04:26:06;8.10;99.90
7411;DHT22;3747;48.628;9.058;2022-09-02T04:28:33;8.00;99.90
7411;DHT22;3747;48.628;9.058;2022-09-02T04:31:02;8.00;99.90
7411;DHT22;3747;48.628;9.058;2022-09-02T04:33:31;7.90;99.90
7411;DHT22;3747;48.628;9.058;2022-09-02T04:35:57;7.90;99.90
7411;DHT22;3747;48.628;9.058;2022-09-02T04:38:24;7.90;99.90
7411;DHT22;3747;48.628;9.058;2022-09-02T04:40:51;7.80;99.90
7411;DHT22;3747;48.628;9.058;2022-09-02T04:43:17;7.70;99.90
7411;DHT22;3747;48.628;9.058;2022-09-02T04:45:45;7.70;99.90
7411;DHT22;3747;48.628;9.058;2022-09-02T04:48:12;7.70;99.90
7411;DHT22;3747;48.628;9.058;2022-09-02T04:50:40;7.60;99.90
7411;DHT22;3747;48.628;9.058;2022-09-02T04:53:09;7.70;99.90
7411;DHT22;3747;48.628;9.058;2022-09-02T04:55:38;7.80;99.90
7411;DHT22;3747;48.628;9.058;2022-09-02T04:58:06;7.80;99.90
7411;DHT22;3747;48.628;9.058;2022-09-02T05:00:32;7.90;99.90
7411;DHT22;3747;48.628;9.058;2022-09-02T05:02:59;8.00;99.90
7411;DHT22;3747;48.628;9.058;2022-09-02T05:05:26;8.10;99.90
7411;DHT22;3747;48.628;9.058;2022-09-02T05:07:54;8.20;99.90
7411;DHT22;3747;48.628;9.058;2022-09-02T05:10:21;8.30;99.90
7411;DHT22;3747;48.628;9.058;2022-09-02T05:12:48;8.30;99.90
7411;DHT22;3747;48.628;9.058;2022-09-02T05:15:16;8.30;99.90
7411;DHT22;3747;48.628;9.058;2022-09-02T05:17:43;8.40;99.90
7411;DHT22;3747;48.628;9.058;2022-09-02T05:20:11;8.50;99.90
7411;DHT22;3747;48.628;9.058;2022-09-02T05:22:38;8.50;99.90
7411;DHT22;3747;48.628;9.058;2022-09-02T05:25:07;8.50;99.90
7411;DHT22;3747;48.628;9.058;2022-09-02T05:27:34;8.50;99.90
7411;DHT22;3747;48.628;9.058;2022-09-02T05:30:02;8.60;99.90
7411;DHT22;3747;48.628;9.058;2022-09-02T05:32:29;8.60;99.90
7411;DHT22;3747;48.628;9.058;2022-09-02T05:34:56;8.70;99.90
7411;DHT22;3747;48.628;9.058;2022-09-02T05:37:23;8.80;99.90
7411;DHT22;3747;48.628;9.058;2022-09-02T05:39:50;8.90;99.90
7411;DHT22;3747;48.628;9.058;2022-09-02T05:42:19;9.00;99.90
7411;DHT22;3747;48.628;9.058;2022-09-02T05:44:46;9.20;99.90
7411;DHT22;3747;48.628;9.058;2022-09-02T05:47:13;9.30;99.90
7411;DHT22;3747;48.628;9.058;2022-09-02T05:49:39;9.40;99.90
7411;DHT22;3747;48.628;9.058;2022-09-02T05:52:06;9.50;99.90
7411;DHT22;3747;48.628;9.058;2022-09-02T05:54:37;9.60;99.90
7411;DHT22;3747;48.628;9.058;2022-09-02T05:57:06;9.70;99.90
7411;DHT22;3747;48.628;9.058;2022-09-02T05:59:35;9.90;99.90
7411;DHT22;3747;48.628;9.058;2022-09-02T06:02:03;10.00;99.90
7411;DHT22;3747;48.628;9.058;2022-09-02T06:04:30;10.10;99.90
7411;DHT22;3747;48.628;9.058;2022-09-02T06:06:57;10.20;99.90
7411;DHT22;3747;48.628;9.058;2022-09-02T06:09:24;10.30;99.90
7411;DHT22;3747;48.628;9.058;2022-09-02T06:11:51;10.40;99.90
7411;DHT22;3747;48.628;9.058;2022-09-02T06:14:20;10.50;99.90
7411;DHT22;3747;48.628;9.058;2022-09-02T06:16:51;10.60;99.90
7411;DHT22;3747;48.628;9.058;2022-09-02T06:19:20;10.70;99.90
7411;DHT22;3747;48.628;9.058;2022-09-02T06:21:47;10.90;99.90
7411;DHT22;3747;48.628;9.058;2022-09-02T06:24:14;11.00;99.90
7411;DHT22;3747;48.628;9.058;2022-09-02T06:26:41;11.20;99.90
7411;DHT22;3747;48.628;9.058;2022-09-02T06:29:09;11.40;99.90
7411;DHT22;3747;48.628;9.058;2022-09-02T06:31:36;11.60;99.90
7411;DHT22;3747;48.628;9.058;2022-09-02T06:34:04;11.70;99.90
7411;DHT22;3747;48.628;9.058;2022-09-02T06:36:31;11.90;99.90
7411;DHT22;3747;48.628;9.058;2022-09-02T06:38:59;12.20;99.90
7411;DHT22;3747;48.628;9.058;2022-09-02T06:41:28;12.30;99.90
7411;DHT22;3747;48.628;9.058;2022-09-02T06:43:57;12.50;99.90
7411;DHT22;3747;48.628;9.058;2022-09-02T06:46:25;12.90;99.90
7411;DHT22;3747;48.628;9.058;2022-09-02T06:48:52;13.60;99.90
7411;DHT22;3747;48.628;9.058;2022-09-02T06:51:22;14.30;99.90
7411;DHT22;3747;48.628;9.058;2022-09-02T06:53:50;14.90;99.90
7411;DHT22;3747;48.628;9.058;2022-09-02T06:56:17;15.40;99.90
7411;DHT22;3747;48.628;9.058;2022-09-02T06:58:44;15.90;99.90
7411;DHT22;3747;48.628;9.058;2022-09-02T07:01:17;16.40;99.90
7411;DHT22;3747;48.628;9.058;2022-09-02T07:03:44;16.80;99.90
7411;DHT22;3747;48.628;9.058;2022-09-02T07:06:32;17.30;99.90
7411;DHT22;3747;48.628;9.058;2022-09-02T07:09:01;17.40;99.90
7411;DHT22;3747;48.628;9.058;2022-09-02T07:11:28;17.80;99.90
7411;DHT22;3747;48.628;9.058;2022-09-02T07:13:54;18.00;99.90
7411;DHT22;3747;48.628;9.058;2022-09-02T07:16:24;18.00;99.90
7411;DHT22;3747;48.628;9.058;2022-09-02T07:18:51;18.00;99.90
7411;DHT22;3747;48.628;9.058;2022-09-02T07:21:18;18.10;99.90
7411;DHT22;3747;48.628;9.058;2022-09-02T07:23:46;18.50;99.90
7411;DHT22;3747;48.628;9.058;2022-09-02T07:26:13;18.40;99.90
7411;DHT22;3747;48.628;9.058;2022-09-02T07:28:40;18.70;99.90
7411;DHT22;3747;48.628;9.058;2022-09-02T07:31:08;18.80;99.90
7411;DHT22;3747;48.628;9.058;2022-09-02T07:33:35;19.00;99.90
7411;DHT22;3747;48.628;9.058;2022-09-02T07:36:03;19.10;99.90
7411;DHT22;3747;48.628;9.058;2022-09-02T07:38:30;19.40;99.90
7411;DHT22;3747;48.628;9.058;2022-09-02T07:40:58;19.30;99.90
7411;DHT22;3747;48.628;9.058;2022-09-02T07:43:26;19.40;99.90
7411;DHT22;3747;48.628;9.058;2022-09-02T07:45:53;19.50;99.90
7411;DHT22;3747;48.628;9.058;2022-09-02T07:48:21;19.60;99.90
7411;DHT22;3747;48.628;9.058;2022-09-02T07:50:49;19.20;99.90
7411;DHT22;3747;48.628;9.058;2022-09-02T07:53:16;19.40;99.90
7411;DHT22;3747;48.628;9.058;2022-09-02T07:55:53;20.10;99.90
7411;DHT22;3747;48.628;9.058;2022-09-02T07:58:21;20.30;99.90
7411;DHT22;3747;48.628;9.058;2022-09-02T08:00:49;20.30;99.90
7411;DHT22;3747;48.628;9.058;2022-09-02T08:03:17;20.30;99.90
7411;DHT22;3747;48.628;9.058;2022-09-02T08:05:44;20.50;99.90
7411;DHT22;3747;48.628;9.058;2022-09-02T08:08:18;20.20;99.90
7411;DHT22;3747;48.628;9.058;2022-09-02T08:10:47;20.20;99.90
7411;DHT22;3747;48.628;9.058;2022-09-02T08:13:14;20.30;99.90
7411;DHT22;3747;48.628;9.058;2022-09-02T08:15:43;20.70;99.90
7411;DHT22;3747;48.628;9.058;2022-09-02T08:18:10;20.70;99.90
7411;DHT22;3747;48.628;9.058;2022-09-02T08:20:37;20.90;99.90
7411;DHT22;3747;48.628;9.058;2022-09-02T08:23:05;21.10;99.90
7411;DHT22;3747;48.628;9.058;2022-09-02T08:25:32;21.00;99.90
7411;DHT22;3747;48.628;9.058;2022-09-02T08:27:59;21.40;99.90
7411;DHT22;3747;48.628;9.058;2022-09-02T08:30:49;21.60;99.90
7411;DHT22;3747;48.628;9.058;2022-09-02T08:33:15;21.80;99.90
7411;DHT22;3747;48.628;9.058;2022-09-02T08:35:42;22.10;99.90
7411;DHT22;3747;48.628;9.058;2022-09-02T08:38:09;22.10;99.90
7411;DHT22;3747;48.628;9.058;2022-09-02T08:40:38;22.30;99.90
7411;DHT22;3747;48.628;9.058;2022-09-02T08:43:26;22.30;99.90
7411;DHT22;3747;48.628;9.058;2022-09-02T08:45:57;22.50;99.90
7411;DHT22;3747;48.628;9.058;2022-09-02T08:48:33;22.40;99.90
7411;DHT22;3747;48.628;9.058;2022-09-02T08:51:04;22.20;99.90
7411;DHT22;3747;48.628;9.058;2022-09-02T08:53:37;22.20;99.90
7411;DHT22;3747;48.628;9.058;2022-09-02T08:56:08;22.50;99.90
7411;DHT22;3747;48.628;9.058;2022-09-02T08:58:39;22.70;99.90
7411;DHT22;3747;48.628;9.058;2022-09-02T09:01:13;22.50;99.90
7411;DHT22;3747;48.628;9.058;2022-09-02T09:03:58;22.80;99.90
7411;DHT22;3747;48.628;9.058;2022-09-02T09:06:34;22.90;99.90
7411;DHT22;3747;48.628;9.058;2022-09-02T09:09:09;23.30;99.90
7411;DHT22;3747;48.628;9.058;2022-09-02T09:11:44;23.40;99.90
7411;DHT22;3747;48.628;9.058;2022-09-02T09:14:19;23.20;99.90
7411;DHT22;3747;48.628;9.058;2022-09-02T09:16:56;23.50;99.90
7411;DHT22;3747;48.628;9.058;2022-09-02T09:19:30;23.60;99.10
7411;DHT22;3747;48.628;9.058;2022-09-02T09:22:01;23.50;99.90
7411;DHT22;3747;48.628;9.058;2022-09-02T09:24:34;23.40;99.40
7411;DHT22;3747;48.628;9.058;2022-09-02T09:27:03;23.30;99.00
7411;DHT22;3747;48.628;9.058;2022-09-02T09:29:32;23.10;99.60
7411;DHT22;3747;48.628;9.058;2022-09-02T09:32:02;23.20;99.50
7411;DHT22;3747;48.628;9.058;2022-09-02T09:34:58;23.20;98.20
7411;DHT22;3747;48.628;9.058;2022-09-02T09:37:29;23.30;98.00
7411;DHT22;3747;48.628;9.058;2022-09-02T09:39:56;23.50;97.80
7411;DHT22;3747;48.628;9.058;2022-09-02T09:42:30;23.70;97.20
7411;DHT22;3747;48.628;9.058;2022-09-02T09:44:57;23.70;97.40
7411;DHT22;3747;48.628;9.058;2022-09-02T09:47:26;23.60;96.80
7411;DHT22;3747;48.628;9.058;2022-09-02T09:50:09;23.30;96.70
7411;DHT22;3747;48.628;9.058;2022-09-02T09:52:36;23.20;96.80
7411;DHT22;3747;48.628;9.058;2022-09-02T09:55:09;24.10;96.90
7411;DHT22;3747;48.628;9.058;2022-09-02T09:57:37;24.60;96.20
7411;DHT22;3747;48.628;9.058;2022-09-02T10:00:09;24.20;95.00
7411;DHT22;3747;48.628;9.058;2022-09-02T10:02:46;23.80;94.60
7411;DHT22;3747;48.628;9.058;2022-09-02T10:05:18;23.80;94.40
7411;DHT22;3747;48.628;9.058;2022-09-02T10:07:53;23.90;94.30
7411;DHT22;3747;48.628;9.058;2022-09-02T10:10:22;24.20;94.50
7411;DHT22;3747;48.628;9.058;2022-09-02T10:12:52;24.50;91.60
7411;DHT22;3747;48.628;9.058;2022-09-02T10:15:26;24.10;91.60
7411;DHT22;3747;48.628;9.058;2022-09-02T10:18:02;24.40;91.70
7411;DHT22;3747;48.628;9.058;2022-09-02T10:20:42;24.50;92.60
7411;DHT22;3747;48.628;9.058;2022-09-02T10:23:30;24.50;91.70
7411;DHT22;3747;48.628;9.058;2022-09-02T10:26:05;24.70;91.60
7411;DHT22;3747;48.628;9.058;2022-09-02T10:28:48;24.80;91.20
7411;DHT22;3747;48.628;9.058;2022-09-02T10:31:25;24.60;91.60
7411;DHT22;3747;48.628;9.058;2022-09-02T10:34:04;24.70;91.20
7411;DHT22;3747;48.628;9.058;2022-09-02T10:36:37;25.30;90.80
7411;DHT22;3747;48.628;9.058;2022-09-02T10:39:15;25.10;90.30
7411;DHT22;3747;48.628;9.058;2022-09-02T10:41:46;25.00;90.20
7411;DHT22;3747;48.628;9.058;2022-09-02T10:44:36;25.30;89.90
7411;DHT22;3747;48.628;9.058;2022-09-02T10:47:09;25.30;90.20
7411;DHT22;3747;48.628;9.058;2022-09-02T10:49:57;26.00;89.60
7411;DHT22;3747;48.628;9.058;2022-09-02T10:52:35;25.80;86.60
7411;DHT22;3747;48.628;9.058;2022-09-02T10:55:14;25.40;86.50
7411;DHT22;3747;48.628;9.058;2022-09-02T10:57:45;25.50;87.20
7411;DHT22;3747;48.628;9.058;2022-09-02T11:00:15;25.60;86.80
7411;DHT22;3747;48.628;9.058;2022-09-02T11:02:46;25.20;86.20
7411;DHT22;3747;48.628;9.058;2022-09-02T11:05:18;25.20;86.40
7411;DHT22;3747;48.628;9.058;2022-09-02T11:07:51;25.10;84.80
7411;DHT22;3747;48.628;9.058;2022-09-02T11:10:23;25.10;85.20
7411;DHT22;3747;48.628;9.058;2022-09-02T11:12:56;25.00;85.90
7411;DHT22;3747;48.628;9.058;2022-09-02T11:15:35;25.00;85.90
7411;DHT22;3747;48.628;9.058;2022-09-02T11:18:10;25.10;84.10
7411;DHT22;3747;48.628;9.058;2022-09-02T11:20:46;25.50;83.70
7411;DHT22;3747;48.628;9.058;2022-09-02T11:23:19;25.70;84.70
7411;DHT22;3747;48.628;9.058;2022-09-02T11:25:52;25.50;82.50
7411;DHT22;3747;48.628;9.058;2022-09-02T11:28:28;25.70;81.60
7411;DHT22;3747;48.628;9.058;2022-09-02T11:31:00;26.10;82.30
7411;DHT22;3747;48.628;9.058;2022-09-02T11:33:37;26.30;81.30
7411;DHT22;3747;48.628;9.058;2022-09-02T11:36:10;26.70;81.90
7411;DHT22;3747;48.628;9.058;2022-09-02T11:38:41;26.40;80.90
7411;DHT22;3747;48.628;9.058;2022-09-02T11:41:27;26.50;81.90
7411;DHT22;3747;48.628;9.058;2022-09-02T11:44:04;26.90;81.90
7411;DHT22;3747;48.628;9.058;2022-09-02T11:47:03;26.40;80.30
7411;DHT22;3747;48.628;9.058;2022-09-02T11:50:02;26.30;80.00
7411;DHT22;3747;48.628;9.058;2022-09-02T11:52:48;26.00;81.30
7411;DHT22;3747;48.628;9.058;2022-09-02T11:55:21;26.60;80.20
7411;DHT22;3747;48.628;9.058;2022-09-02T11:57:52;26.70;80.00
7411;DHT22;3747;48.628;9.058;2022-09-02T12:00:27;27.00;78.10
7411;DHT22;3747;48.628;9.058;2022-09-02T12:03:00;27.40;78.30
7411;DHT22;3747;48.628;9.058;2022-09-02T12:05:47;27.30;77.50
7411;DHT22;3747;48.628;9.058;2022-09-02T12:15:02;26.90;76.00
7411;DHT22;3747;48.628;9.058;2022-09-02T12:24:08;27.20;76.50
7411;DHT22;3747;48.628;9.058;2022-09-02T12:27:10;27.50;74.70
7411;DHT22;3747;48.628;9.058;2022-09-02T12:29:43;27.60;74.00
7411;DHT22;3747;48.628;9.058;2022-09-02T12:32:11;27.80;73.60
7411;DHT22;3747;48.628;9.058;2022-09-02T12:34:53;27.90;75.80
7411;DHT22;3747;48.628;9.058;2022-09-02T12:37:49;28.30;73.40
7411;DHT22;3747;48.628;9.058;2022-09-02T12:40:22;28.60;74.40
7411;DHT22;3747;48.628;9.058;2022-09-02T12:42:51;28.10;75.00
7411;DHT22;3747;48.628;9.058;2022-09-02T12:45:23;27.90;72.40
7411;DHT22;3747;48.628;9.058;2022-09-02T12:47:57;27.90;75.50
7411;DHT22;3747;48.628;9.058;2022-09-02T12:50:26;28.50;73.70
7411;DHT22;3747;48.628;9.058;2022-09-02T12:53:17;28.80;72.40
7411;DHT22;3747;48.628;9.058;2022-09-02T12:55:53;29.00;70.60
7411;DHT22;3747;48.628;9.058;2022-09-02T12:58:21;29.00;73.50
7411;DHT22;3747;48.628;9.058;2022-09-02T13:00:58;29.10;71.60
7411;DHT22;3747;48.628;9.058;2022-09-02T13:06:31;28.60;70.10
7411;DHT22;3747;48.628;9.058;2022-09-02T13:15:35;28.40;70.10
7411;DHT22;3747;48.628;9.058;2022-09-02T13:18:32;28.80;70.50
7411;DHT22;3747;48.628;9.058;2022-09-02T13:21:33;29.00;70.20
7411;DHT22;3747;48.628;9.058;2022-09-02T13:27:45;29.30;69.70
7411;DHT22;3747;48.628;9.058;2022-09-02T13:30:20;28.90;71.00
7411;DHT22;3747;48.628;9.058;2022-09-02T13:32:55;28.50;71.30
7411;DHT22;3747;48.628;9.058;2022-09-02T13:35:25;28.60;72.10
7411;DHT22;3747;48.628;9.058;2022-09-02T13:37:55;28.80;70.60
7411;DHT22;3747;48.628;9.058;2022-09-02T13:40:26;29.10;70.90
7411;DHT22;3747;48.628;9.058;2022-09-02T13:42:54;28.80;70.50
7411;DHT22;3747;48.628;9.058;2022-09-02T13:45:22;29.20;70.50
7411;DHT22;3747;48.628;9.058;2022-09-02T13:47:51;29.00;71.20
7411;DHT22;3747;48.628;9.058;2022-09-02T13:50:20;29.20;69.90
7411;DHT22;3747;48.628;9.058;2022-09-02T13:52:49;29.00;71.00
7411;DHT22;3747;48.628;9.058;2022-09-02T13:55:18;28.90;70.60
7411;DHT22;3747;48.628;9.058;2022-09-02T13:57:53;29.60;71.50
7411;DHT22;3747;48.628;9.058;2022-09-02T14:00:27;29.60;68.80
7411;DHT22;3747;48.628;9.058;2022-09-02T14:02:56;29.00;69.30
7411;DHT22;3747;48.628;9.058;2022-09-02T14:05:26;28.30;69.70
7411;DHT22;3747;48.628;9.058;2022-09-02T14:07:56;28.40;69.70
7411;DHT22;3747;48.628;9.058;2022-09-02T14:10:26;28.80;71.80
7411;DHT22;3747;48.628;9.058;2022-09-02T14:12:54;29.10;69.00
7411;DHT22;3747;48.628;9.058;2022-09-02T14:15:26;29.60;68.90
7411;DHT22;3747;48.628;9.058;2022-09-02T14:18:07;29.90;66.90
7411;DHT22;3747;48.628;9.058;2022-09-02T14:20:36;30.50;67.50
7411;DHT22;3747;48.628;9.058;2022-09-02T14:23:03;30.10;66.70
7411;DHT22;3747;48.628;9.058;2022-09-02T14:25:35;28.90;67.50
7411;DHT22;3747;48.628;9.058;2022-09-02T14:28:09;28.40;68.60
7411;DHT22;3747;48.628;9.058;2022-09-02T14:30:39;28.60;68.50
7411;DHT22;3747;48.628;9.058;2022-09-02T14:33:18;28.90;68.40
7411;DHT22;3747;48.628;9.058;2022-09-02T14:35:56;29.30;68.20
7411;DHT22;3747;48.628;9.058;2022-09-02T14:38:24;29.00;66.60
7411;DHT22;3747;48.628;9.058;2022-09-02T14:41:00;28.80;68.40
7411;DHT22;3747;48.628;9.058;2022-09-02T14:43:28;29.50;67.30
7411;DHT22;3747;48.628;9.058;2022-09-02T14:46:04;30.00;66.10
7411;DHT22;3747;48.628;9.058;2022-09-02T14:48:35;29.90;65.30
7411;DHT22;3747;48.628;9.058;2022-09-02T14:51:05;28.80;65.80
7411;DHT22;3747;48.628;9.058;2022-09-02T14:53:33;28.20;67.50
7411;DHT22;3747;48.628;9.058;2022-09-02T14:56:04;28.10;68.20
7411;DHT22;3747;48.628;9.058;2022-09-02T14:58:31;28.20;67.10
7411;DHT22;3747;48.628;9.058;2022-09-02T15:00:59;28.90;67.40
7411;DHT22;3747;48.628;9.058;2022-09-02T15:03:27;29.50;66.50
7411;DHT22;3747;48.628;9.058;2022-09-02T15:05:54;29.40;65.70
7411;DHT22;3747;48.628;9.058;2022-09-02T15:08:26;28.90;65.80
7411;DHT22;3747;48.628;9.058;2022-09-02T15:10:57;28.70;66.80
7411;DHT22;3747;48.628;9.058;2022-09-02T15:13:28;28.60;66.80
7411;DHT22;3747;48.628;9.058;2022-09-02T15:15:57;28.60;65.40
7411;DHT22;3747;48.628;9.058;2022-09-02T15:18:24;28.50;66.60
7411;DHT22;3747;48.628;9.058;2022-09-02T15:20:51;28.50;66.60
7411;DHT22;3747;48.628;9.058;2022-09-02T15:23:18;27.70;66.50
7411;DHT22;3747;48.628;9.058;2022-09-02T15:25:45;27.60;68.20
7411;DHT22;3747;48.628;9.058;2022-09-02T15:28:12;27.90;67.60
7411;DHT22;3747;48.628;9.058;2022-09-02T15:30:40;27.70;66.50
7411;DHT22;3747;48.628;9.058;2022-09-02T15:33:08;27.90;66.30
7411;DHT22;3747;48.628;9.058;2022-09-02T15:35:35;27.90;67.00
7411;DHT22;3747;48.628;9.058;2022-09-02T15:38:01;27.70;68.20
7411;DHT22;3747;48.628;9.058;2022-09-02T15:40:29;27.20;67.90
7411;DHT22;3747;48.628;9.058;2022-09-02T15:42:56;26.90;68.80
7411;DHT22;3747;48.628;9.058;2022-09-02T15:45:24;26.70;68.90
7411;DHT22;3747;48.628;9.058;2022-09-02T15:47:55;26.40;69.60
7411;DHT22;3747;48.628;9.058;2022-09-02T15:50:22;26.20;70.30
7411;DHT22;3747;48.628;9.058;2022-09-02T15:52:49;26.00;71.70
7411;DHT22;3747;48.628;9.058;2022-09-02T15:55:16;26.30;71.50
7411;DHT22;3747;48.628;9.058;2022-09-02T15:57:42;26.10;70.30
7411;DHT22;3747;48.628;9.058;2022-09-02T16:00:10;26.00;70.90
7411;DHT22;3747;48.628;9.058;2022-09-02T16:02:37;26.00;71.20
7411;DHT22;3747;48.628;9.058;2022-09-02T16:05:06;25.50;72.10
7411;DHT22;3747;48.628;9.058;2022-09-02T16:07:36;24.80;72.50
7411;DHT22;3747;48.628;9.058;2022-09-02T16:10:03;24.30;73.90
7411;DHT22;3747;48.628;9.058;2022-09-02T16:12:31;24.00;75.00
7411;DHT22;3747;48.628;9.058;2022-09-02T16:14:58;23.80;75.70
7411;DHT22;3747;48.628;9.058;2022-09-02T16:17:24;23.60;75.40
7411;DHT22;3747;48.628;9.058;2022-09-02T16:19:51;23.50;77.10
7411;DHT22;3747;48.628;9.058;2022-09-02T16:22:19;23.40;77.30
7411;DHT22;3747;48.628;9.058;2022-09-02T16:24:46;23.20;78.40
7411;DHT22;3747;48.628;9.058;2022-09-02T16:27:12;23.10;79.50
7411;DHT22;3747;48.628;9.058;2022-09-02T16:29:59;22.90;80.00
7411;DHT22;3747;48.628;9.058;2022-09-02T16:32:26;22.90;80.30
7411;DHT22;3747;48.628;9.058;2022-09-02T16:34:53;23.30;80.20
7411;DHT22;3747;48.628;9.058;2022-09-02T16:37:21;24.20;78.20
7411;DHT22;3747;48.628;9.058;2022-09-02T16:39:55;25.20;77.20
7411;DHT22;3747;48.628;9.058;2022-09-02T16:42:30;25.80;75.80
7411;DHT22;3747;48.628;9.058;2022-09-02T16:44:57;25.90;74.20
7411;DHT22;3747;48.628;9.058;2022-09-02T16:47:24;25.50;74.20
7411;DHT22;3747;48.628;9.058;2022-09-02T16:49:51;25.10;75.30
7411;DHT22;3747;48.628;9.058;2022-09-02T16:52:18;24.50;76.60
7411;DHT22;3747;48.628;9.058;2022-09-02T16:54:46;24.30;78.00